Columbia, South Carolina
Current Conditions -  °F | °C
As of 5:53 PM on Wednesday 22 Oct 2014 (Local Time) from KCUB Reporting Station
Clear Clear  
Wind Chill: 67°   Ceiling: Unl
Heat Index: 67°   Visibility: 10mi
Dew Point: 40°   Wind: 0mph
Humidity: 37%   Direction: NA
Pressure: 30.04"   Gusts: NA
Location:  34°N, 81.04°W
Report Text: KCUB 222153Z AUTO 00000KT 10SM CLR 19/04 A3004 RMK AO2 SLP169 T01940044
Loading
Personal Weather Stations






























Interactive Weather Map New forecast layout! Learn more

10-Day Weather Forecast

Advertisements
Track Severe Weather on mobile